Samos, Greece
Current Conditions -  °F | °C
As of 5:50 PM on Tuesday 27 Jan 2015 (Local Time) from LGSM Reporting Station
Overcast Overcast  
Wind Chill: 12°   Ceiling: 2000
Heat Index: 12°   Visibility: 6mi
Dew Point: 12°   Wind: 6mph
Humidity: 100%   Direction: 90°E
Pressure: 29.8"   Gusts: NA
Location:  37.76°N, 26.98°E
Report Text: LGSM 271450Z 09005KT 9999 SCT015 BKN020 OVC060 12/12 Q1009
Loading
Personal Weather Stations






























Interactive Weather Map New forecast layout! Learn more

10-Day Weather Forecast

Advertisements
Track Severe Weather on mobile